La Salle, Canada
Current Conditions -  °F | °C
As of 7:00 PM on Monday 20 Oct 2014 (Local Time) from CYWG Reporting Station
Clear Clear  
Wind Chill:   Ceiling: Unl
Heat Index:   Visibility: 15mi
Dew Point:   Wind: 7mph
Humidity: 76%   Direction: 120°ESE
Pressure: 30.05"   Gusts: NA
Location:  49.68°N, 97.27°W
Report Text: CYWG 210000Z 12006KT 15SM SKC 07/03 A3005 RMK SLP184
Loading
Personal Weather Stations






























Interactive Weather Map
Tropical Storm Tracking
New forecast layout! Learn more

10-Day Weather Forecast

Advertisements
Track Severe Weather on mobile